sensor_id;sensor_type;location;lat;lon;timestamp;P1;durP1;ratioP1;P2;durP2;ratioP2
23768;SDS011;12064;50.890;5.424;2022-11-11T00:05:15;1.03;;;0.70;;
23768;SDS011;12064;50.890;5.424;2022-11-11T00:14:06;0.80;;;0.50;;
23768;SDS011;12064;50.890;5.424;2022-11-11T00:22:57;0.70;;;0.70;;
23768;SDS011;12064;50.890;5.424;2022-11-11T00:32:06;0.57;;;0.52;;
23768;SDS011;12064;50.890;5.424;2022-11-11T00:41:17;0.63;;;0.63;;
23768;SDS011;12064;50.890;5.424;2022-11-11T00:50:10;0.82;;;0.70;;
23768;SDS011;12064;50.890;5.424;2022-11-11T00:59:21;0.82;;;0.70;;
23768;SDS011;12064;50.890;5.424;2022-11-11T01:08:12;0.77;;;0.70;;
23768;SDS011;12064;50.890;5.424;2022-11-11T01:17:04;0.88;;;0.70;;
23768;SDS011;12064;50.890;5.424;2022-11-11T01:25:59;0.65;;;0.63;;
23768;SDS011;12064;50.890;5.424;2022-11-11T01:34:51;0.60;;;0.60;;
23768;SDS011;12064;50.890;5.424;2022-11-11T01:43:43;0.70;;;0.70;;
23768;SDS011;12064;50.890;5.424;2022-11-11T01:52:35;0.68;;;0.68;;
23768;SDS011;12064;50.890;5.424;2022-11-11T02:01:29;0.90;;;0.70;;
23768;SDS011;12064;50.890;5.424;2022-11-11T02:10:22;0.50;;;0.50;;
23768;SDS011;12064;50.890;5.424;2022-11-11T02:19:14;0.95;;;0.80;;
23768;SDS011;12064;50.890;5.424;2022-11-11T02:28:09;0.65;;;0.65;;
23768;SDS011;12064;50.890;5.424;2022-11-11T02:37:03;0.88;;;0.60;;
23768;SDS011;12064;50.890;5.424;2022-11-11T02:45:55;0.70;;;0.70;;
23768;SDS011;12064;50.890;5.424;2022-11-11T02:54:47;0.75;;;0.75;;
23768;SDS011;12064;50.890;5.424;2022-11-11T03:03:38;0.60;;;0.60;;
23768;SDS011;12064;50.890;5.424;2022-11-11T03:12:31;0.73;;;0.60;;
23768;SDS011;12064;50.890;5.424;2022-11-11T03:21:22;0.50;;;0.50;;
23768;SDS011;12064;50.890;5.424;2022-11-11T03:30:12;0.80;;;0.80;;
23768;SDS011;12064;50.890;5.424;2022-11-11T03:47:57;0.60;;;0.60;;
23768;SDS011;12064;50.890;5.424;2022-11-11T03:56:48;0.70;;;0.70;;
23768;SDS011;12064;50.890;5.424;2022-11-11T04:05:38;0.80;;;0.80;;
23768;SDS011;12064;50.890;5.424;2022-11-11T04:14:47;0.95;;;0.80;;
23768;SDS011;12064;50.890;5.424;2022-11-11T04:23:56;0.60;;;0.60;;
23768;SDS011;12064;50.890;5.424;2022-11-11T04:32:47;0.80;;;0.80;;
23768;SDS011;12064;50.890;5.424;2022-11-11T04:41:38;0.70;;;0.70;;
23768;SDS011;12064;50.890;5.424;2022-11-11T04:50:31;0.65;;;0.65;;
23768;SDS011;12064;50.890;5.424;2022-11-11T04:59:27;0.68;;;0.68;;
23768;SDS011;12064;50.890;5.424;2022-11-11T05:08:18;0.60;;;0.60;;
23768;SDS011;12064;50.890;5.424;2022-11-11T05:17:27;0.50;;;0.50;;
23768;SDS011;12064;50.890;5.424;2022-11-11T05:26:36;0.50;;;0.50;;
23768;SDS011;12064;50.890;5.424;2022-11-11T05:35:27;0.60;;;0.60;;
23768;SDS011;12064;50.890;5.424;2022-11-11T05:44:17;0.50;;;0.50;;
23768;SDS011;12064;50.890;5.424;2022-11-11T05:53:08;0.60;;;0.60;;
23768;SDS011;12064;50.890;5.424;2022-11-11T06:01:59;0.60;;;0.60;;
23768;SDS011;12064;50.890;5.424;2022-11-11T06:10:49;0.70;;;0.60;;
23768;SDS011;12064;50.890;5.424;2022-11-11T06:19:42;0.77;;;0.77;;
23768;SDS011;12064;50.890;5.424;2022-11-11T06:28:32;0.70;;;0.70;;
23768;SDS011;12064;50.890;5.424;2022-11-11T06:37:23;0.50;;;0.50;;
23768;SDS011;12064;50.890;5.424;2022-11-11T06:46:21;1.00;;;0.60;;
23768;SDS011;12064;50.890;5.424;2022-11-11T06:55:14;0.60;;;0.60;;
23768;SDS011;12064;50.890;5.424;2022-11-11T07:04:04;0.70;;;0.63;;
23768;SDS011;12064;50.890;5.424;2022-11-11T07:12:55;0.70;;;0.70;;
23768;SDS011;12064;50.890;5.424;2022-11-11T07:21:45;0.50;;;0.50;;
23768;SDS011;12064;50.890;5.424;2022-11-11T07:30:36;0.50;;;0.50;;
23768;SDS011;12064;50.890;5.424;2022-11-11T07:39:27;0.40;;;0.40;;
23768;SDS011;12064;50.890;5.424;2022-11-11T07:48:17;0.60;;;0.60;;
23768;SDS011;12064;50.890;5.424;2022-11-11T07:57:08;0.40;;;0.40;;
23768;SDS011;12064;50.890;5.424;2022-11-11T08:06:00;0.50;;;0.50;;
23768;SDS011;12064;50.890;5.424;2022-11-11T08:14:52;0.70;;;0.60;;
23768;SDS011;12064;50.890;5.424;2022-11-11T08:23:43;0.55;;;0.50;;
23768;SDS011;12064;50.890;5.424;2022-11-11T08:32:37;1.35;;;0.57;;
23768;SDS011;12064;50.890;5.424;2022-11-11T08:41:27;1.65;;;0.70;;
23768;SDS011;12064;50.890;5.424;2022-11-11T08:50:18;0.60;;;0.60;;
23768;SDS011;12064;50.890;5.424;2022-11-11T08:59:09;1.50;;;0.52;;
23768;SDS011;12064;50.890;5.424;2022-11-11T09:08:00;0.70;;;0.70;;
23768;SDS011;12064;50.890;5.424;2022-11-11T09:16:52;0.70;;;0.68;;
23768;SDS011;12064;50.890;5.424;2022-11-11T09:25:42;0.63;;;0.60;;
23768;SDS011;12064;50.890;5.424;2022-11-11T09:34:34;0.70;;;0.70;;
23768;SDS011;12064;50.890;5.424;2022-11-11T09:43:34;1.15;;;0.80;;
23768;SDS011;12064;50.890;5.424;2022-11-11T10:01:52;0.60;;;0.60;;
23768;SDS011;12064;50.890;5.424;2022-11-11T10:10:46;0.88;;;0.88;;
23768;SDS011;12064;50.890;5.424;2022-11-11T10:19:43;0.68;;;0.60;;
23768;SDS011;12064;50.890;5.424;2022-11-11T10:28:37;1.03;;;0.70;;
23768;SDS011;12064;50.890;5.424;2022-11-11T10:37:41;0.77;;;0.77;;
23768;SDS011;12064;50.890;5.424;2022-11-11T10:46:38;0.98;;;0.68;;
23768;SDS011;12064;50.890;5.424;2022-11-11T10:55:48;0.88;;;0.70;;
23768;SDS011;12064;50.890;5.424;2022-11-11T11:04:57;1.70;;;0.80;;
23768;SDS011;12064;50.890;5.424;2022-11-11T11:13:56;1.92;;;0.70;;
23768;SDS011;12064;50.890;5.424;2022-11-11T11:22:53;0.60;;;0.60;;
23768;SDS011;12064;50.890;5.424;2022-11-11T11:31:47;0.90;;;0.90;;
23768;SDS011;12064;50.890;5.424;2022-11-11T11:59:08;0.80;;;0.80;;
23768;SDS011;12064;50.890;5.424;2022-11-11T12:26:53;0.70;;;0.70;;
23768;SDS011;12064;50.890;5.424;2022-11-11T13:03:08;0.77;;;0.77;;
23768;SDS011;12064;50.890;5.424;2022-11-11T13:21:05;0.93;;;0.82;;
23768;SDS011;12064;50.890;5.424;2022-11-11T13:30:04;0.63;;;0.63;;
23768;SDS011;12064;50.890;5.424;2022-11-11T13:39:33;1.17;;;0.70;;
23768;SDS011;12064;50.890;5.424;2022-11-11T13:48:30;0.73;;;0.73;;
23768;SDS011;12064;50.890;5.424;2022-11-11T13:57:24;1.15;;;0.90;;
23768;SDS011;12064;50.890;5.424;2022-11-11T14:15:36;0.77;;;0.77;;
23768;SDS011;12064;50.890;5.424;2022-11-11T14:42:47;0.80;;;0.65;;
23768;SDS011;12064;50.890;5.424;2022-11-11T14:51:45;1.15;;;0.80;;
23768;SDS011;12064;50.890;5.424;2022-11-11T15:37:36;0.77;;;0.77;;
23768;SDS011;12064;50.890;5.424;2022-11-11T15:46:28;1.98;;;0.80;;
23768;SDS011;12064;50.890;5.424;2022-11-11T16:04:15;0.88;;;0.88;;
23768;SDS011;12064;50.890;5.424;2022-11-11T16:13:54;1.05;;;0.98;;
23768;SDS011;12064;50.890;5.424;2022-11-11T16:22:27;0.82;;;0.80;;
23768;SDS011;12064;50.890;5.424;2022-11-11T16:58:30;0.98;;;0.90;;
23768;SDS011;12064;50.890;5.424;2022-11-11T17:07:38;0.90;;;0.90;;
23768;SDS011;12064;50.890;5.424;2022-11-11T17:16:31;1.02;;;0.90;;
23768;SDS011;12064;50.890;5.424;2022-11-11T17:25:22;1.00;;;1.00;;
23768;SDS011;12064;50.890;5.424;2022-11-11T17:34:13;1.13;;;0.70;;
23768;SDS011;12064;50.890;5.424;2022-11-11T17:43:04;0.77;;;0.77;;
23768;SDS011;12064;50.890;5.424;2022-11-11T17:51:55;0.90;;;0.90;;
23768;SDS011;12064;50.890;5.424;2022-11-11T18:00:46;1.00;;;0.90;;
23768;SDS011;12064;50.890;5.424;2022-11-11T18:09:36;0.77;;;0.77;;
23768;SDS011;12064;50.890;5.424;2022-11-11T18:18:28;0.87;;;0.87;;
23768;SDS011;12064;50.890;5.424;2022-11-11T18:27:19;1.00;;;0.90;;
23768;SDS011;12064;50.890;5.424;2022-11-11T18:36:14;2.00;;;1.00;;
23768;SDS011;12064;50.890;5.424;2022-11-11T18:45:09;0.85;;;0.85;;
23768;SDS011;12064;50.890;5.424;2022-11-11T18:54:00;1.30;;;1.00;;
23768;SDS011;12064;50.890;5.424;2022-11-11T19:02:51;1.20;;;1.10;;
23768;SDS011;12064;50.890;5.424;2022-11-11T19:11:44;1.10;;;1.00;;
23768;SDS011;12064;50.890;5.424;2022-11-11T19:20:36;1.55;;;1.00;;
23768;SDS011;12064;50.890;5.424;2022-11-11T19:29:27;1.13;;;1.05;;
23768;SDS011;12064;50.890;5.424;2022-11-11T19:38:17;3.93;;;1.10;;
23768;SDS011;12064;50.890;5.424;2022-11-11T19:47:10;0.90;;;0.90;;
23768;SDS011;12064;50.890;5.424;2022-11-11T19:56:02;0.98;;;0.98;;
23768;SDS011;12064;50.890;5.424;2022-11-11T20:04:57;0.85;;;0.85;;
23768;SDS011;12064;50.890;5.424;2022-11-11T20:13:48;0.90;;;0.90;;
23768;SDS011;12064;50.890;5.424;2022-11-11T20:22:39;1.00;;;1.00;;
23768;SDS011;12064;50.890;5.424;2022-11-11T20:31:30;1.23;;;1.13;;
23768;SDS011;12064;50.890;5.424;2022-11-11T20:40:20;0.93;;;0.90;;
23768;SDS011;12064;50.890;5.424;2022-11-11T20:49:11;0.83;;;0.80;;
23768;SDS011;12064;50.890;5.424;2022-11-11T20:58:02;1.00;;;0.90;;
23768;SDS011;12064;50.890;5.424;2022-11-11T21:06:52;1.23;;;1.15;;
23768;SDS011;12064;50.890;5.424;2022-11-11T21:15:43;1.10;;;1.00;;
23768;SDS011;12064;50.890;5.424;2022-11-11T21:24:34;0.80;;;0.80;;
23768;SDS011;12064;50.890;5.424;2022-11-11T21:33:25;0.82;;;0.82;;
23768;SDS011;12064;50.890;5.424;2022-11-11T21:42:16;1.10;;;1.00;;
23768;SDS011;12064;50.890;5.424;2022-11-11T21:51:11;1.05;;;1.00;;
23768;SDS011;12064;50.890;5.424;2022-11-11T22:00:05;1.08;;;0.98;;
23768;SDS011;12064;50.890;5.424;2022-11-11T22:08:57;1.20;;;1.10;;
23768;SDS011;12064;50.890;5.424;2022-11-11T22:17:51;1.08;;;0.98;;
23768;SDS011;12064;50.890;5.424;2022-11-11T22:26:42;1.20;;;1.10;;
23768;SDS011;12064;50.890;5.424;2022-11-11T22:35:34;1.15;;;1.05;;
23768;SDS011;12064;50.890;5.424;2022-11-11T22:44:27;1.20;;;1.10;;
23768;SDS011;12064;50.890;5.424;2022-11-11T22:53:19;1.67;;;1.00;;
23768;SDS011;12064;50.890;5.424;2022-11-11T23:02:10;1.13;;;1.02;;
23768;SDS011;12064;50.890;5.424;2022-11-11T23:11:06;1.10;;;1.02;;
23768;SDS011;12064;50.890;5.424;2022-11-11T23:20:00;1.27;;;1.00;;
23768;SDS011;12064;50.890;5.424;2022-11-11T23:28:54;1.23;;;1.13;;
23768;SDS011;12064;50.890;5.424;2022-11-11T23:37:45;0.93;;;0.93;;
23768;SDS011;12064;50.890;5.424;2022-11-11T23:46:36;1.20;;;1.10;;
23768;SDS011;12064;50.890;5.424;2022-11-11T23:55:26;1.10;;;1.00;;
